Time;durP1;ratioP1;P1;durP2;ratioP2;P2;SDS_P1;SDS_P2;PMS_P1;PMS_P2;Temp;Humidity;BMP_temperature;BMP_pressure;BME280_temperature;BME280_humidity;BME280_pressure;Samples;Min_cycle;Max_cycle;Signal;HPM_P1;HPM_P2
2022/03/24 00:01:23;;;;;;;10.25;4.72;;;;;;;;;;4995290;28;20029;-86
2022/03/24 00:03:48;;;;;;;8.00;4.88;;;;;;;;;;5012513;28;20094;-86
2022/03/24 00:06:14;;;;;;;11.30;4.63;;;;;;;;;;4995009;28;20029;-87
2022/03/24 00:08:40;;;;;;;10.15;5.07;;;;;;;;;;4995645;28;20045;-86
2022/03/24 00:11:05;;;;;;;9.23;4.75;;;;;;;;;;4994715;28;20108;-86
2022/03/24 00:13:31;;;;;;;7.43;3.58;;;;;;;;;;5012869;28;20470;-87
2022/03/24 00:15:58;;;;;;;8.43;4.43;;;;;;;;;;5013563;28;20022;-86
2022/03/24 00:18:23;;;;;;;8.30;4.45;;;;;;;;;;5011642;28;20034;-87
2022/03/24 00:20:49;;;;;;;6.57;3.92;;;;;;;;;;4995202;28;20029;-86
2022/03/24 00:23:15;;;;;;;9.60;3.95;;;;;;;;;;4995115;28;20470;-86
2022/03/24 00:25:41;;;;;;;8.43;5.22;;;;;;;;;;4995064;28;20025;-86
2022/03/24 00:28:07;;;;;;;5.80;4.00;;;;;;;;;;4994936;28;20478;-87
2022/03/24 00:30:32;;;;;;;8.50;4.53;;;;;;;;;;5012730;28;20049;-86
2022/03/24 00:32:58;;;;;;;13.40;5.18;;;;;;;;;;4994973;28;20057;-87
2022/03/24 00:35:24;;;;;;;8.90;4.32;;;;;;;;;;5012694;28;20036;-88
2022/03/24 00:37:52;;;;;;;6.65;4.15;;;;;;;;;;4994870;28;20026;-87
2022/03/24 00:40:18;;;;;;;12.43;4.57;;;;;;;;;;4993690;28;20025;-86
2022/03/24 00:42:44;;;;;;;5.63;4.55;;;;;;;;;;4994771;28;20398;-86
2022/03/24 00:45:12;;;;;;;8.32;4.60;;;;;;;;;;4995012;28;20057;-87
2022/03/24 00:47:39;;;;;;;7.55;3.70;;;;;;;;;;5008638;28;20048;-89
2022/03/24 00:50:05;;;;;;;8.48;4.03;;;;;;;;;;4995290;28;20034;-87
2022/03/24 00:52:30;;;;;;;10.45;4.90;;;;;;;;;;4994644;28;20021;-85
2022/03/24 00:54:56;;;;;;;5.05;3.53;;;;;;;;;;5012456;28;20044;-85
2022/03/24 00:57:22;;;;;;;8.63;3.72;;;;;;;;;;4994746;28;20500;-85
2022/03/24 00:59:47;;;;;;;6.57;3.40;;;;;;;;;;5012333;28;20026;-86
2022/03/24 01:02:14;;;;;;;8.48;3.60;;;;;;;;;;4994385;28;20827;-86
2022/03/24 01:04:41;;;;;;;11.10;4.28;;;;;;;;;;4994339;28;20516;-84
2022/03/24 01:07:07;;;;;;;6.65;3.85;;;;;;;;;;4994053;28;20508;-86
2022/03/24 01:09:33;;;;;;;8.52;4.25;;;;;;;;;;4994644;28;20101;-85
2022/03/24 01:11:58;;;;;;;7.07;3.65;;;;;;;;;;5011719;28;20041;-85
2022/03/24 01:14:25;;;;;;;5.53;3.80;;;;;;;;;;5011797;28;20381;-85
2022/03/24 01:16:51;;;;;;;5.00;3.65;;;;;;;;;;4994202;28;20093;-85
2022/03/24 01:19:17;;;;;;;5.50;3.85;;;;;;;;;;5012147;28;20025;-88
2022/03/24 01:21:43;;;;;;;8.63;3.92;;;;;;;;;;4994474;28;20077;-86
2022/03/24 01:24:09;;;;;;;18.17;9.40;;;;;;;;;;4994451;28;20022;-88
2022/03/24 01:26:36;;;;;;;8.88;5.80;;;;;;;;;;5028255;28;20022;-89
2022/03/24 01:29:02;;;;;;;13.57;6.07;;;;;;;;;;5012715;28;20026;-89
2022/03/24 01:31:28;;;;;;;10.68;5.68;;;;;;;;;;5012300;28;20026;-86
2022/03/24 01:33:54;;;;;;;7.90;5.20;;;;;;;;;;4994863;28;20556;-88
2022/03/24 01:36:20;;;;;;;8.35;4.82;;;;;;;;;;5011651;28;20026;-87
2022/03/24 01:38:46;;;;;;;8.63;4.65;;;;;;;;;;4993941;28;20025;-87
2022/03/24 01:41:12;;;;;;;10.85;4.18;;;;;;;;;;5011664;28;20112;-86
2022/03/24 01:43:37;;;;;;;11.07;4.60;;;;;;;;;;5011676;28;20117;-86
2022/03/24 01:46:04;;;;;;;14.20;6.38;;;;;;;;;;4993844;28;20033;-86
2022/03/24 01:48:30;;;;;;;13.57;6.72;;;;;;;;;;4994741;28;20032;-87
2022/03/24 01:50:56;;;;;;;7.95;5.13;;;;;;;;;;4994348;28;20033;-85
2022/03/24 01:53:22;;;;;;;11.25;5.68;;;;;;;;;;5011556;28;20018;-88
2022/03/24 01:55:50;;;;;;;9.68;5.15;;;;;;;;;;5011635;28;20066;-87
2022/03/24 01:58:16;;;;;;;12.00;5.05;;;;;;;;;;4994112;28;20033;-88
2022/03/24 02:00:44;;;;;;;12.15;4.80;;;;;;;;;;5012793;28;20033;-87
2022/03/24 02:03:14;;;;;;;24.65;11.30;;;;;;;;;;4994908;28;20033;-86
2022/03/24 02:05:40;;;;;;;12.10;5.53;;;;;;;;;;4994135;28;20038;-87
2022/03/24 02:08:05;;;;;;;10.85;6.13;;;;;;;;;;4993970;28;20021;-86
2022/03/24 02:10:33;;;;;;;7.68;5.18;;;;;;;;;;4993788;28;20500;-87
2022/03/24 02:12:59;;;;;;;9.10;5.15;;;;;;;;;;5011402;28;20405;-86
2022/03/24 02:15:25;;;;;;;13.77;6.15;;;;;;;;;;4994073;28;20084;-86
2022/03/24 02:17:52;;;;;;;13.00;6.07;;;;;;;;;;4993332;28;20113;-87
2022/03/24 02:20:22;;;;;;;13.82;5.65;;;;;;;;;;4997668;28;20433;-87
2022/03/24 02:22:51;;;;;;;11.48;6.45;;;;;;;;;;4997227;28;20371;-86
2022/03/24 02:25:17;;;;;;;13.07;7.40;;;;;;;;;;4995270;28;20030;-86
2022/03/24 02:27:47;;;;;;;10.48;6.10;;;;;;;;;;4997483;28;20538;-87
2022/03/24 02:30:12;;;;;;;10.13;5.72;;;;;;;;;;4997605;28;20025;-88
2022/03/24 02:32:38;;;;;;;10.35;5.13;;;;;;;;;;4996913;28;20046;-87
2022/03/24 02:35:06;;;;;;;9.98;4.85;;;;;;;;;;4997643;28;20041;-88
2022/03/24 02:37:33;;;;;;;8.63;6.10;;;;;;;;;;4997461;28;20466;-88
2022/03/24 02:39:59;;;;;;;7.65;4.90;;;;;;;;;;4997146;28;20470;-86
2022/03/24 02:42:27;;;;;;;15.32;5.07;;;;;;;;;;4997086;28;20389;-86
2022/03/24 02:44:55;;;;;;;11.10;5.25;;;;;;;;;;5015166;28;20022;-85
2022/03/24 02:47:22;;;;;;;9.82;5.45;;;;;;;;;;4997552;28;20033;-89
2022/03/24 02:49:50;;;;;;;10.57;5.90;;;;;;;;;;4997389;28;20036;-88
2022/03/24 02:52:16;;;;;;;10.65;6.43;;;;;;;;;;4996550;28;20018;-86
2022/03/24 02:54:42;;;;;;;10.43;5.60;;;;;;;;;;4996819;28;20470;-87
2022/03/24 02:57:08;;;;;;;11.73;5.65;;;;;;;;;;4996843;28;20037;-85
2022/03/24 02:59:34;;;;;;;11.40;5.63;;;;;;;;;;4996764;28;20450;-89
2022/03/24 03:02:06;;;;;;;10.95;4.43;;;;;;;;;;4996920;28;20029;-86
2022/03/24 03:04:32;;;;;;;12.07;5.40;;;;;;;;;;4995908;28;20042;-87
2022/03/24 03:07:02;;;;;;;8.05;4.75;;;;;;;;;;4996757;28;20030;-86
2022/03/24 03:09:29;;;;;;;8.75;5.70;;;;;;;;;;4997142;28;20124;-87
2022/03/24 03:11:56;;;;;;;12.18;6.03;;;;;;;;;;4996648;28;20038;-88
2022/03/24 03:14:22;;;;;;;10.18;6.45;;;;;;;;;;5013413;28;20018;-86
2022/03/24 03:16:48;;;;;;;9.30;6.20;;;;;;;;;;5014178;28;20072;-87
2022/03/24 03:19:17;;;;;;;9.25;5.80;;;;;;;;;;5014819;28;20386;-86
2022/03/24 03:21:42;;;;;;;10.02;5.22;;;;;;;;;;5011286;28;20018;-86
2022/03/24 03:24:10;;;;;;;7.65;4.30;;;;;;;;;;5013450;28;20479;-87
2022/03/24 03:26:36;;;;;;;9.52;5.28;;;;;;;;;;4996309;28;20088;-86
2022/03/24 03:29:03;;;;;;;7.90;4.57;;;;;;;;;;4995744;28;20466;-87
2022/03/24 03:31:28;;;;;;;7.38;4.93;;;;;;;;;;5013964;28;20029;-86
2022/03/24 03:33:54;;;;;;;11.90;5.38;;;;;;;;;;4995942;28;20022;-86
2022/03/24 03:36:22;;;;;;;8.50;4.95;;;;;;;;;;4995368;28;20022;-87
2022/03/24 03:38:49;;;;;;;6.72;4.60;;;;;;;;;;4995281;28;20029;-86
2022/03/24 03:41:15;;;;;;;8.48;4.80;;;;;;;;;;4995478;28;20044;-84
2022/03/24 03:43:44;;;;;;;9.93;5.75;;;;;;;;;;4995046;28;20026;-85
2022/03/24 03:46:10;;;;;;;7.68;4.50;;;;;;;;;;4995350;28;20037;-86
2022/03/24 03:48:39;;;;;;;10.15;4.63;;;;;;;;;;4995612;28;20525;-86
2022/03/24 03:51:06;;;;;;;12.10;4.70;;;;;;;;;;4995228;28;20121;-86
2022/03/24 03:53:33;;;;;;;7.68;4.28;;;;;;;;;;4995745;28;21475;-87
2022/03/24 03:55:59;;;;;;;8.95;4.82;;;;;;;;;;5013028;28;20025;-85
2022/03/24 03:58:25;;;;;;;8.60;4.35;;;;;;;;;;5012932;28;20064;-85
2022/03/24 04:00:53;;;;;;;6.80;4.28;;;;;;;;;;4995779;28;20053;-85
2022/03/24 04:03:19;;;;;;;8.68;3.97;;;;;;;;;;4995231;28;20025;-86
2022/03/24 04:05:45;;;;;;;12.32;7.63;;;;;;;;;;5012783;28;20089;-86
2022/03/24 04:08:11;;;;;;;7.15;4.40;;;;;;;;;;4995206;28;20026;-85
2022/03/24 04:10:38;;;;;;;12.07;6.82;;;;;;;;;;5012863;28;20370;-85
2022/03/24 04:13:04;;;;;;;9.88;5.38;;;;;;;;;;4995417;28;20458;-86
2022/03/24 04:15:31;;;;;;;7.00;4.55;;;;;;;;;;4995122;28;20021;-85
2022/03/24 04:17:57;;;;;;;7.25;4.82;;;;;;;;;;4994556;28;20359;-87
2022/03/24 04:20:22;;;;;;;9.85;4.57;;;;;;;;;;4995080;28;20088;-87
2022/03/24 04:22:50;;;;;;;8.60;4.68;;;;;;;;;;4995243;28;20076;-87
2022/03/24 04:25:16;;;;;;;5.25;4.10;;;;;;;;;;4995276;28;20028;-88
2022/03/24 04:27:42;;;;;;;10.55;7.03;;;;;;;;;;4995188;28;20105;-85
2022/03/24 04:30:08;;;;;;;10.45;4.78;;;;;;;;;;5012718;28;20118;-89
2022/03/24 04:32:33;;;;;;;6.30;3.22;;;;;;;;;;4994500;28;20033;-89
2022/03/24 04:34:59;;;;;;;7.32;4.97;;;;;;;;;;5012488;28;20025;-87
2022/03/24 04:37:25;;;;;;;11.27;5.05;;;;;;;;;;4994354;28;20061;-86
2022/03/24 04:39:51;;;;;;;8.00;4.70;;;;;;;;;;5012434;28;20485;-87
2022/03/24 04:42:17;;;;;;;6.95;4.15;;;;;;;;;;4994175;28;20026;-86
2022/03/24 04:44:42;;;;;;;10.95;4.82;;;;;;;;;;4994514;28;20514;-87
2022/03/24 04:47:08;;;;;;;8.50;5.10;;;;;;;;;;5012182;28;20026;-88
2022/03/24 04:49:39;;;;;;;8.40;5.97;;;;;;;;;;5012320;28;20026;-87
2022/03/24 04:52:06;;;;;;;7.95;5.43;;;;;;;;;;5012592;28;20053;-88
2022/03/24 04:54:31;;;;;;;9.57;5.55;;;;;;;;;;4995166;28;20104;-87
2022/03/24 04:56:57;;;;;;;10.15;5.10;;;;;;;;;;4994709;28;20120;-85
2022/03/24 04:59:22;;;;;;;7.85;4.75;;;;;;;;;;4994633;28;20032;-86
2022/03/24 05:01:48;;;;;;;6.78;4.53;;;;;;;;;;5012568;28;20132;-86
2022/03/24 05:04:15;;;;;;;10.57;5.65;;;;;;;;;;4994773;28;20446;-86
2022/03/24 05:06:41;;;;;;;11.90;6.35;;;;;;;;;;4994228;28;20196;-86
2022/03/24 05:09:07;;;;;;;11.68;6.75;;;;;;;;;;4992993;28;20088;-86
2022/03/24 05:11:32;;;;;;;13.07;8.52;;;;;;;;;;4994037;28;20029;-88
2022/03/24 05:13:58;;;;;;;13.77;7.22;;;;;;;;;;4995043;28;20343;-88
2022/03/24 05:16:24;;;;;;;14.82;7.60;;;;;;;;;;4994574;28;20037;-87
2022/03/24 05:18:49;;;;;;;12.45;6.70;;;;;;;;;;4994671;28;20022;-88
2022/03/24 05:21:15;;;;;;;12.30;5.88;;;;;;;;;;4994939;28;20018;-89
2022/03/24 05:23:40;;;;;;;10.52;6.18;;;;;;;;;;5012344;28;20471;-87
2022/03/24 05:26:07;;;;;;;11.20;5.25;;;;;;;;;;4994383;28;20422;-85
2022/03/24 05:28:32;;;;;;;9.95;5.47;;;;;;;;;;5011624;28;20429;-86
2022/03/24 05:30:58;;;;;;;12.45;6.63;;;;;;;;;;4994060;28;20088;-87
2022/03/24 05:33:24;;;;;;;10.63;5.75;;;;;;;;;;5011645;28;20018;-86
2022/03/24 05:35:50;;;;;;;9.13;5.53;;;;;;;;;;5011893;28;20484;-88
2022/03/24 05:38:16;;;;;;;8.32;4.93;;;;;;;;;;5011968;28;20049;-86
2022/03/24 05:40:41;;;;;;;11.00;5.50;;;;;;;;;;4993907;28;20080;-86
2022/03/24 05:43:07;;;;;;;9.68;4.93;;;;;;;;;;5011791;28;20022;-86
2022/03/24 05:45:32;;;;;;;11.68;5.03;;;;;;;;;;4994658;28;20025;-87
2022/03/24 05:47:58;;;;;;;10.98;5.55;;;;;;;;;;5011790;28;20393;-87
2022/03/24 05:50:24;;;;;;;9.60;5.47;;;;;;;;;;5011661;28;20413;-87
2022/03/24 05:52:51;;;;;;;13.10;5.85;;;;;;;;;;5013326;28;20024;-85
2022/03/24 05:55:17;;;;;;;10.00;5.45;;;;;;;;;;5015473;28;20052;-88
2022/03/24 05:57:46;;;;;;;11.70;5.57;;;;;;;;;;4997424;28;20052;-89
2022/03/24 06:00:12;;;;;;;12.90;5.72;;;;;;;;;;5015608;28;20034;-86
2022/03/24 06:02:39;;;;;;;10.75;5.50;;;;;;;;;;5013777;28;20029;-87
2022/03/24 06:05:05;;;;;;;10.02;6.30;;;;;;;;;;5014948;28;20042;-87
2022/03/24 06:07:32;;;;;;;13.23;6.70;;;;;;;;;;5014930;28;20049;-87
2022/03/24 06:09:58;;;;;;;14.27;6.85;;;;;;;;;;5013816;28;20032;-88
2022/03/24 06:12:24;;;;;;;21.63;10.10;;;;;;;;;;5014848;28;20022;-87
2022/03/24 06:14:51;;;;;;;25.95;13.25;;;;;;;;;;5015093;28;20030;-89
2022/03/24 06:17:19;;;;;;;26.90;14.13;;;;;;;;;;5015044;28;20462;-90
2022/03/24 06:19:47;;;;;;;25.70;14.48;;;;;;;;;;4997492;28;20032;-86
2022/03/24 06:22:13;;;;;;;26.95;15.88;;;;;;;;;;5014764;28;20051;-88
2022/03/24 06:24:39;;;;;;;25.98;15.50;;;;;;;;;;4997534;28;20378;-88
2022/03/24 06:27:05;;;;;;;30.63;15.25;;;;;;;;;;4997058;28;20105;-87
2022/03/24 06:29:31;;;;;;;29.98;15.50;;;;;;;;;;4998040;28;20068;-88
2022/03/24 06:31:57;;;;;;;30.08;17.17;;;;;;;;;;5029734;28;20109;-88
2022/03/24 06:34:23;;;;;;;27.70;15.43;;;;;;;;;;4996889;28;20104;-88
2022/03/24 06:36:50;;;;;;;30.15;15.05;;;;;;;;;;5014657;28;20064;-88
2022/03/24 06:39:16;;;;;;;29.15;15.15;;;;;;;;;;4993581;28;20117;-87
2022/03/24 06:41:42;;;;;;;27.35;14.77;;;;;;;;;;4996025;28;20545;-87
2022/03/24 06:44:09;;;;;;;31.55;15.85;;;;;;;;;;5012604;28;20034;-88
2022/03/24 06:46:35;;;;;;;27.52;14.27;;;;;;;;;;4990831;28;20030;-87
2022/03/24 06:49:03;;;;;;;25.60;14.82;;;;;;;;;;4993493;28;20125;-86
2022/03/24 06:51:29;;;;;;;22.67;13.05;;;;;;;;;;4995506;28;20055;-87
2022/03/24 06:53:55;;;;;;;25.95;13.93;;;;;;;;;;4995066;28;20022;-86
2022/03/24 06:56:21;;;;;;;21.92;12.98;;;;;;;;;;5014238;28;20442;-87
2022/03/24 06:58:47;;;;;;;21.88;13.10;;;;;;;;;;4994118;28;20026;-88
2022/03/24 07:01:13;;;;;;;26.88;14.30;;;;;;;;;;5014307;28;20026;-89
2022/03/24 07:03:40;;;;;;;25.50;13.65;;;;;;;;;;5014425;28;20030;-89
2022/03/24 07:06:05;;;;;;;22.80;13.63;;;;;;;;;;5012106;28;20041;-84
2022/03/24 07:08:31;;;;;;;25.50;14.13;;;;;;;;;;5014043;28;20666;-85
2022/03/24 07:10:57;;;;;;;23.33;12.93;;;;;;;;;;5014025;28;20172;-87
2022/03/24 07:13:23;;;;;;;28.65;14.00;;;;;;;;;;4996529;28;20025;-87
2022/03/24 07:15:48;;;;;;;25.33;13.70;;;;;;;;;;4995831;28;20026;-82
2022/03/24 07:18:15;;;;;;;27.65;14.52;;;;;;;;;;5028387;28;20033;-83
2022/03/24 07:20:41;;;;;;;24.58;13.63;;;;;;;;;;5013275;28;20049;-82
2022/03/24 07:23:07;;;;;;;73.07;38.47;;;;;;;;;;5013151;28;20061;-84
2022/03/24 07:25:32;;;;;;;25.00;15.00;;;;;;;;;;5028489;28;20034;-86
2022/03/24 07:27:59;;;;;;;28.50;15.40;;;;;;;;;;5013255;28;20042;-84
2022/03/24 07:30:26;;;;;;;31.52;14.45;;;;;;;;;;4995431;28;20029;-87
2022/03/24 07:32:54;;;;;;;22.67;14.38;;;;;;;;;;4995709;28;20034;-86
2022/03/24 07:35:21;;;;;;;30.83;14.75;;;;;;;;;;4995681;28;20495;-83
2022/03/24 07:37:48;;;;;;;25.58;15.32;;;;;;;;;;5013432;28;20049;-87
2022/03/24 07:40:18;;;;;;;32.50;14.43;;;;;;;;;;4996187;28;20030;-89
2022/03/24 07:42:44;;;;;;;30.55;15.90;;;;;;;;;;5013264;28;20029;-85
2022/03/24 07:45:10;;;;;;;35.00;15.10;;;;;;;;;;5013173;28;20037;-83
2022/03/24 07:48:06;;;;;;;83.03;45.33;;;;;;;;;;5028496;28;20030;-87
2022/03/24 07:50:33;;;;;;;30.35;14.35;;;;;;;;;;4995602;28;20377;-85
2022/03/24 07:53:13;;;;;;;26.95;14.73;;;;;;;;;;4995010;28;20029;-86
2022/03/24 07:55:41;;;;;;;24.02;14.20;;;;;;;;;;4995434;28;20048;-86
2022/03/24 07:58:08;;;;;;;34.67;15.20;;;;;;;;;;5028195;28;20038;-84
2022/03/24 08:00:34;;;;;;;25.80;15.85;;;;;;;;;;5013191;28;20080;-87
2022/03/24 08:03:00;;;;;;;37.45;15.57;;;;;;;;;;4994596;28;20030;-87
2022/03/24 08:05:26;;;;;;;63.00;30.70;;;;;;;;;;5012758;28;20058;-85
2022/03/24 08:07:54;;;;;;;31.38;14.85;;;;;;;;;;5027461;28;20093;-86
2022/03/24 08:10:19;;;;;;;27.38;13.77;;;;;;;;;;4994979;28;20477;-86
2022/03/24 08:12:45;;;;;;;30.20;15.85;;;;;;;;;;5011706;28;20084;-87
2022/03/24 08:15:11;;;;;;;26.63;16.60;;;;;;;;;;5010867;28;20117;-85
2022/03/24 08:17:36;;;;;;;27.17;15.52;;;;;;;;;;5010192;28;20109;-85
2022/03/24 08:20:03;;;;;;;25.90;16.40;;;;;;;;;;4994543;28;20034;-85
2022/03/24 08:22:29;;;;;;;34.78;16.85;;;;;;;;;;5011548;28;20029;-87
2022/03/24 08:24:54;;;;;;;25.33;16.30;;;;;;;;;;5011920;28;20033;-84
2022/03/24 08:27:20;;;;;;;31.27;16.90;;;;;;;;;;5011829;28;20021;-87
2022/03/24 08:29:45;;;;;;;28.65;16.02;;;;;;;;;;4994638;28;20030;-88
2022/03/24 08:32:12;;;;;;;23.23;16.15;;;;;;;;;;5028556;28;20040;-87
2022/03/24 08:34:38;;;;;;;31.27;15.48;;;;;;;;;;5001703;28;20117;-87
2022/03/24 08:37:04;;;;;;;31.88;19.20;;;;;;;;;;5012320;28;20108;-86
2022/03/24 08:39:29;;;;;;;26.48;15.20;;;;;;;;;;4996395;28;20448;-87
2022/03/24 08:41:55;;;;;;;25.45;13.65;;;;;;;;;;5012024;28;20113;-86
2022/03/24 08:44:22;;;;;;;25.48;14.13;;;;;;;;;;5011820;28;20364;-84
2022/03/24 08:46:48;;;;;;;22.45;14.43;;;;;;;;;;5011789;28;20041;-84
2022/03/24 08:49:13;;;;;;;21.25;10.90;;;;;;;;;;4994218;28;20044;-84
2022/03/24 08:51:39;;;;;;;19.83;11.13;;;;;;;;;;5011690;28;20034;-86
2022/03/24 08:54:05;;;;;;;24.88;11.45;;;;;;;;;;5012136;28;20057;-88
2022/03/24 08:56:31;;;;;;;17.70;9.15;;;;;;;;;;4994561;28;20021;-89
2022/03/24 08:58:57;;;;;;;17.33;9.50;;;;;;;;;;5011759;28;20541;-85
2022/03/24 09:01:22;;;;;;;11.95;8.68;;;;;;;;;;5015011;28;20034;-87
2022/03/24 09:03:49;;;;;;;12.95;7.72;;;;;;;;;;5012056;28;20108;-88
2022/03/24 09:06:15;;;;;;;13.98;7.65;;;;;;;;;;5011810;28;20454;-85
2022/03/24 09:08:42;;;;;;;13.27;5.90;;;;;;;;;;5012323;28;20057;-86
2022/03/24 09:11:09;;;;;;;14.70;6.65;;;;;;;;;;4994461;28;20034;-86
2022/03/24 09:13:35;;;;;;;14.93;6.95;;;;;;;;;;4994366;28;20032;-85
2022/03/24 09:16:01;;;;;;;9.00;6.03;;;;;;;;;;4994483;28;20057;-86
2022/03/24 09:18:26;;;;;;;9.75;5.53;;;;;;;;;;4994576;28;20057;-84
2022/03/24 09:20:52;;;;;;;9.55;6.05;;;;;;;;;;5011435;28;20477;-84
2022/03/24 09:23:18;;;;;;;10.15;6.30;;;;;;;;;;5001944;28;20097;-85
2022/03/24 09:25:43;;;;;;;8.20;5.45;;;;;;;;;;4981005;28;20050;-84
2022/03/24 09:28:10;;;;;;;14.32;6.22;;;;;;;;;;4996669;28;20465;-85
2022/03/24 09:30:36;;;;;;;10.90;6.43;;;;;;;;;;5012222;28;20043;-84
2022/03/24 09:33:02;;;;;;;8.20;5.80;;;;;;;;;;4998461;28;20053;-83
2022/03/24 09:35:28;;;;;;;10.27;6.65;;;;;;;;;;4998181;28;20385;-85
2022/03/24 09:37:54;;;;;;;13.10;6.15;;;;;;;;;;4998296;28;20037;-85
2022/03/24 09:40:19;;;;;;;8.80;5.97;;;;;;;;;;4997860;28;20026;-86
2022/03/24 09:42:47;;;;;;;13.48;5.82;;;;;;;;;;4998244;28;20061;-86
2022/03/24 09:45:13;;;;;;;7.82;5.90;;;;;;;;;;5028098;28;20033;-87
2022/03/24 09:47:40;;;;;;;7.47;5.05;;;;;;;;;;4998036;28;20018;-86
2022/03/24 09:50:07;;;;;;;9.88;5.55;;;;;;;;;;5008731;28;20054;-86
2022/03/24 09:52:33;;;;;;;9.70;5.72;;;;;;;;;;4998033;28;20485;-83
2022/03/24 09:54:59;;;;;;;12.65;6.20;;;;;;;;;;4997385;28;20124;-85
2022/03/24 09:57:24;;;;;;;13.27;5.85;;;;;;;;;;5015297;28;20026;-87
2022/03/24 09:59:50;;;;;;;9.57;5.43;;;;;;;;;;5015421;28;20025;-85
2022/03/24 10:02:16;;;;;;;11.65;5.80;;;;;;;;;;5002531;28;20030;-86
2022/03/24 10:04:55;;;;;;;8.75;5.15;;;;;;;;;;5011095;28;20406;-86
2022/03/24 10:07:25;;;;;;;12.20;6.30;;;;;;;;;;4989156;28;20483;-84
2022/03/24 10:09:56;;;;;;;9.50;5.25;;;;;;;;;;5011538;28;20025;-83
2022/03/24 10:12:31;;;;;;;9.48;6.40;;;;;;;;;;4996188;28;20030;-87
2022/03/24 10:15:00;;;;;;;10.98;6.72;;;;;;;;;;5014011;28;20022;-85
2022/03/24 10:17:26;;;;;;;11.35;5.95;;;;;;;;;;4997479;28;20030;-85
2022/03/24 10:20:15;;;;;;;12.90;6.05;;;;;;;;;;5030581;28;20032;-86
2022/03/24 10:23:05;;;;;;;10.93;6.15;;;;;;;;;;4996374;28;20037;-86
2022/03/24 10:25:37;;;;;;;9.35;5.65;;;;;;;;;;4991904;28;20064;-84
2022/03/24 10:28:11;;;;;;;11.82;5.95;;;;;;;;;;4994370;28;20072;-86
2022/03/24 10:30:53;;;;;;;10.90;5.75;;;;;;;;;;4997502;28;20087;-85
2022/03/24 10:33:27;;;;;;;7.95;5.18;;;;;;;;;;5014217;28;20497;-84
2022/03/24 10:36:12;;;;;;;9.60;5.78;;;;;;;;;;4996496;28;20029;-85
2022/03/24 10:38:41;;;;;;;10.95;5.97;;;;;;;;;;5013525;28;20041;-85
2022/03/24 10:41:13;;;;;;;9.98;5.93;;;;;;;;;;5014807;28;20076;-85
2022/03/24 10:43:39;;;;;;;9.80;5.72;;;;;;;;;;5029236;28;20038;-85
2022/03/24 10:46:19;;;;;;;11.13;5.88;;;;;;;;;;4996613;28;20029;-84
2022/03/24 10:48:47;;;;;;;8.88;5.88;;;;;;;;;;5029074;28;20026;-85
2022/03/24 10:51:25;;;;;;;12.80;6.50;;;;;;;;;;4996183;28;20060;-85
2022/03/24 10:53:53;;;;;;;8.32;5.50;;;;;;;;;;5010776;28;20551;-85
2022/03/24 10:56:29;;;;;;;8.40;5.30;;;;;;;;;;5014415;28;20061;-84
2022/03/24 10:58:58;;;;;;;8.77;5.18;;;;;;;;;;5014278;28;20029;-85
2022/03/24 11:01:27;;;;;;;9.77;6.83;;;;;;;;;;5013130;28;20032;-85
2022/03/24 11:03:53;;;;;;;9.02;5.78;;;;;;;;;;5013667;28;20037;-85
2022/03/24 11:06:22;;;;;;;9.18;5.82;;;;;;;;;;4996972;28;20036;-86
2022/03/24 11:08:53;;;;;;;8.30;5.97;;;;;;;;;;4995069;28;20030;-85
2022/03/24 11:11:19;;;;;;;9.15;5.25;;;;;;;;;;5013842;28;20030;-87
2022/03/24 11:13:55;;;;;;;13.38;6.40;;;;;;;;;;4996678;28;20397;-85
2022/03/24 11:16:32;;;;;;;15.80;5.93;;;;;;;;;;4994172;28;20429;-88
2022/03/24 11:18:59;;;;;;;9.52;5.97;;;;;;;;;;4995541;28;20038;-87
2022/03/24 11:21:33;;;;;;;7.78;5.18;;;;;;;;;;4991343;28;20034;-85
2022/03/24 11:23:59;;;;;;;10.35;7.00;;;;;;;;;;5013156;28;20030;-86
2022/03/24 11:26:26;;;;;;;8.75;6.03;;;;;;;;;;4994809;28;20209;-87
2022/03/24 11:28:56;;;;;;;8.93;6.25;;;;;;;;;;4995666;28;20516;-86
2022/03/24 11:31:23;;;;;;;12.55;6.20;;;;;;;;;;4995113;28;20025;-84
2022/03/24 11:33:54;;;;;;;8.57;5.97;;;;;;;;;;5012047;28;20049;-85
2022/03/24 11:36:21;;;;;;;10.35;6.18;;;;;;;;;;4994915;28;20057;-85
2022/03/24 11:38:53;;;;;;;12.95;6.03;;;;;;;;;;4995982;28;20029;-87
2022/03/24 11:41:29;;;;;;;7.78;5.43;;;;;;;;;;4995981;28;20033;-84
2022/03/24 11:44:03;;;;;;;11.80;5.65;;;;;;;;;;4993618;28;20030;-85
2022/03/24 11:47:11;;;;;;;12.23;6.00;;;;;;;;;;5012786;28;20033;-85
2022/03/24 11:49:37;;;;;;;9.52;5.57;;;;;;;;;;4934813;29;20028;-86
2022/03/24 11:52:02;;;;;;;14.07;5.75;;;;;;;;;;5007898;28;20405;-85
2022/03/24 11:54:35;;;;;;;9.35;5.50;;;;;;;;;;5013523;28;20018;-83
2022/03/24 11:57:26;;;;;;;12.15;5.60;;;;;;;;;;4995514;28;20018;-87
2022/03/24 12:00:14;;;;;;;10.45;5.85;;;;;;;;;;5027011;28;20454;-86
2022/03/24 12:02:43;;;;;;;8.35;5.00;;;;;;;;;;4998378;28;20486;-86
2022/03/24 12:05:12;;;;;;;10.38;5.10;;;;;;;;;;5004627;28;20042;-85
2022/03/24 12:07:38;;;;;;;7.15;4.80;;;;;;;;;;4983352;28;20381;-84
2022/03/24 12:10:13;;;;;;;9.23;5.05;;;;;;;;;;4987410;28;20042;-87
2022/03/24 12:13:19;;;;;;;8.02;5.22;;;;;;;;;;5006527;28;20065;-86
2022/03/24 12:15:44;;;;;;;8.25;5.53;;;;;;;;;;4980767;28;20037;-86
2022/03/24 12:18:15;;;;;;;9.15;5.25;;;;;;;;;;4999963;28;20030;-86
2022/03/24 12:20:46;;;;;;;9.77;5.78;;;;;;;;;;4981404;28;20391;-85
2022/03/24 12:23:11;;;;;;;8.43;5.40;;;;;;;;;;4982808;28;20038;-87
2022/03/24 12:25:38;;;;;;;9.45;4.60;;;;;;;;;;5002050;28;20037;-86
2022/03/24 12:28:23;;;;;;;9.55;5.82;;;;;;;;;;4981939;28;20045;-86
2022/03/24 12:30:53;;;;;;;8.65;4.82;;;;;;;;;;4982643;28;20044;-85
2022/03/24 12:33:32;;;;;;;;;;;;;;;;;;4982556;28;20076;-86
2022/03/24 12:35:59;;;;;;;9.40;5.50;;;;;;;;;;5000287;28;19952;-86
2022/03/24 12:38:30;;;;;;;7.38;4.90;;;;;;;;;;4986908;28;20036;-84
2022/03/24 12:41:05;;;;;;;7.82;4.70;;;;;;;;;;4976255;28;20018;-89
2022/03/24 12:43:48;;;;;;;8.07;5.47;;;;;;;;;;4999699;28;20028;-87
2022/03/24 12:46:32;;;;;;;7.07;4.47;;;;;;;;;;4984012;28;20804;-85
2022/03/24 12:49:25;;;;;;;8.07;5.18;;;;;;;;;;4999377;28;20041;-87
2022/03/24 12:52:03;;;;;;;6.97;4.63;;;;;;;;;;4994091;28;20849;-88
2022/03/24 12:54:41;;;;;;;9.77;5.35;;;;;;;;;;4983912;28;20026;-87
2022/03/24 12:57:31;;;;;;;8.20;5.60;;;;;;;;;;4996515;28;20059;-86
2022/03/24 12:59:56;;;;;;;;;;;;;;;;;;4971137;28;20026;-87
2022/03/24 13:02:22;;;;;;;6.50;4.63;;;;;;;;;;4993188;28;19940;-87
2022/03/24 13:04:50;;;;;;;8.20;4.90;;;;;;;;;;4997850;28;20498;-87
2022/03/24 13:07:25;;;;;;;9.18;5.68;;;;;;;;;;4992253;28;20041;-86
2022/03/24 13:10:12;;;;;;;7.90;4.75;;;;;;;;;;5008314;28;20453;-86
2022/03/24 13:12:41;;;;;;;6.72;5.13;;;;;;;;;;5007796;28;20026;-86
2022/03/24 13:15:15;;;;;;;7.85;4.50;;;;;;;;;;4992506;28;20037;-87
2022/03/24 13:17:41;;;;;;;8.02;5.03;;;;;;;;;;5010522;28;20722;-87
2022/03/24 13:20:07;;;;;;;7.70;5.00;;;;;;;;;;5008191;28;20109;-85
2022/03/24 13:22:33;;;;;;;9.25;4.70;;;;;;;;;;4991971;28;20505;-86
2022/03/24 13:25:10;;;;;;;7.55;4.78;;;;;;;;;;5011857;28;20058;-87
2022/03/24 13:27:42;;;;;;;7.13;5.38;;;;;;;;;;5011162;28;20021;-86
2022/03/24 13:30:10;;;;;;;8.90;4.63;;;;;;;;;;4994344;28;20053;-88
2022/03/24 13:32:36;;;;;;;8.98;5.03;;;;;;;;;;5006619;28;20049;-87
2022/03/24 13:35:06;;;;;;;7.05;4.38;;;;;;;;;;5006839;28;20029;-87
2022/03/24 13:37:36;;;;;;;;;;;;;;;;;;4993297;28;20022;-86
2022/03/24 13:40:03;;;;;;;7.90;4.60;;;;;;;;;;5010761;28;20346;-85
2022/03/24 13:42:29;;;;;;;8.65;5.75;;;;;;;;;;4994323;28;20545;-86
2022/03/24 13:44:55;;;;;;;7.85;6.07;;;;;;;;;;4993864;28;20486;-85
2022/03/24 13:47:25;;;;;;;14.18;5.25;;;;;;;;;;5008560;28;20022;-85
2022/03/24 13:50:05;;;;;;;12.07;5.65;;;;;;;;;;4988954;28;20057;-87
2022/03/24 13:52:33;;;;;;;8.93;4.75;;;;;;;;;;5010861;28;20470;-86
2022/03/24 13:55:05;;;;;;;8.30;5.22;;;;;;;;;;4992553;28;20033;-87
2022/03/24 13:57:32;;;;;;;9.50;5.32;;;;;;;;;;4992503;28;20076;-87
2022/03/24 13:59:57;;;;;;;9.23;5.07;;;;;;;;;;4992701;28;20058;-87
2022/03/24 14:02:27;;;;;;;8.30;4.68;;;;;;;;;;5010559;28;20065;-87
2022/03/24 14:05:04;;;;;;;;;;;;;;;;;;5007125;28;20052;-87
2022/03/24 14:07:29;;;;;;;8.57;4.88;;;;;;;;;;5008280;28;20316;-88
2022/03/24 14:09:55;;;;;;;12.98;6.10;;;;;;;;;;5006320;28;20030;-86
2022/03/24 14:12:25;;;;;;;9.18;6.72;;;;;;;;;;4990619;28;20112;-87
2022/03/24 14:14:50;;;;;;;;;;;;;;;;;;5012717;28;20018;-88
2022/03/24 14:17:22;;;;;;;9.70;6.13;;;;;;;;;;5013136;28;20004;-85
2022/03/24 14:19:57;;;;;;;7.88;4.95;;;;;;;;;;4995739;28;20117;-85
2022/03/24 14:22:24;;;;;;;9.25;5.95;;;;;;;;;;4996193;28;20407;-87
2022/03/24 14:24:51;;;;;;;9.15;6.68;;;;;;;;;;4996914;28;20030;-84
2022/03/24 14:27:21;;;;;;;9.57;5.45;;;;;;;;;;5010429;28;20057;-85
2022/03/24 14:30:07;;;;;;;10.02;5.18;;;;;;;;;;5014687;28;20026;-85
2022/03/24 14:32:35;;;;;;;10.23;5.38;;;;;;;;;;4995173;28;20765;-86
2022/03/24 14:35:16;;;;;;;9.57;5.65;;;;;;;;;;5014123;28;20026;-85
2022/03/24 14:37:49;;;;;;;11.93;8.32;;;;;;;;;;5013972;28;20112;-86
2022/03/24 14:40:32;;;;;;;12.20;6.32;;;;;;;;;;5014137;28;20036;-85
2022/03/24 14:43:11;;;;;;;8.02;5.22;;;;;;;;;;4992693;28;20548;-86